Terminal Aerodrome Forecast
Issued by NWS

Home | Current Version | Previous Version | Text Only | Print | Product List | Glossary On
Versions: 1 2 3 4 5 6 7 8 9 10 11 12 13 14 15 16
000
FTUS44 KEWX 032320
TAFSSF
TAF
KSSF 032320Z 0400/0424 13011KT P6SM FEW060
     FM040500 14008KT P6SM BKN015
     FM041000 13006KT P6SM OVC006
     FM041500 13012KT P6SM OVC015
     FM041800 12015KT P6SM SCT040=

USA.gov is the U.S. government's official web portal to all federal, state and local government web resources and services.